createdAt,value
2016-06-16T00:00:05.209Z,0
2016-06-16T00:01:05.150Z,0
2016-06-16T00:02:05.122Z,0
2016-06-16T00:03:05.125Z,0
2016-06-16T00:04:05.127Z,0
2016-06-16T00:05:05.130Z,0
2016-06-16T00:06:04.931Z,0
2016-06-16T00:07:05.090Z,0
2016-06-16T00:08:05.046Z,0
2016-06-16T00:09:05.096Z,0
2016-06-16T00:10:05.021Z,0
2016-06-16T00:11:04.915Z,0
2016-06-16T00:12:05.012Z,0
2016-06-16T00:13:05.000Z,0
2016-06-16T00:14:04.971Z,0
2016-06-16T00:15:04.958Z,0
2016-06-16T00:16:04.931Z,0
2016-06-16T00:17:04.934Z,0
2016-06-16T00:18:04.936Z,0
2016-06-16T00:19:04.971Z,0
2016-06-16T00:20:04.927Z,0
2016-06-16T00:21:04.915Z,0
2016-06-16T00:22:04.871Z,0
2016-06-16T00:23:04.858Z,0
2016-06-16T00:24:04.861Z,0
2016-06-16T00:25:04.911Z,0
2016-06-16T00:26:05.648Z,0
2016-06-16T00:27:04.823Z,0
2016-06-16T00:28:04.795Z,0
2016-06-16T00:29:04.814Z,0
2016-06-16T00:30:04.739Z,0
2016-06-16T00:31:04.758Z,0
2016-06-16T00:32:04.714Z,0
2016-06-16T00:33:04.716Z,0
2016-06-16T00:34:04.720Z,0
2016-06-16T00:35:04.723Z,0
2016-06-16T00:36:04.679Z,0
2016-06-16T00:37:04.714Z,0
2016-06-16T00:38:04.498Z,0
2016-06-16T00:39:04.673Z,0
2016-06-16T00:40:04.473Z,0
2016-06-16T00:41:04.914Z,0
2016-06-16T00:42:04.604Z,0
2016-06-16T00:43:04.591Z,0
2016-06-16T00:44:04.579Z,0
2016-06-16T00:45:04.567Z,0
2016-06-16T00:46:04.522Z,0
2016-06-16T00:47:04.541Z,0
2016-06-16T00:48:04.513Z,0
2016-06-16T00:49:04.501Z,0
2016-06-16T00:50:04.472Z,0
2016-06-16T00:51:04.507Z,0
2016-06-16T00:52:04.447Z,0
2016-06-16T00:53:04.434Z,0
2016-06-16T00:54:04.437Z,0
2016-06-16T00:55:04.426Z,0
2016-06-16T00:56:04.803Z,0
2016-06-16T00:57:04.385Z,0
2016-06-16T00:58:04.404Z,0
2016-06-16T00:59:04.360Z,0
2016-06-16T01:00:04.330Z,0
2016-06-16T01:01:04.334Z,0
2016-06-16T01:02:04.306Z,0
2016-06-16T01:03:04.309Z,0
2016-06-16T01:04:04.281Z,0
2016-06-16T01:05:04.268Z,0
2016-06-16T01:06:04.271Z,0
2016-06-16T01:07:04.243Z,0
2016-06-16T01:08:04.216Z,0
2016-06-16T01:09:04.233Z,0
2016-06-16T01:10:04.097Z,0
2016-06-16T01:11:04.006Z,0
2016-06-16T01:12:04.243Z,0
2016-06-16T01:13:04.183Z,0
2016-06-16T01:14:04.265Z,0
2016-06-16T01:15:03.940Z,0
2016-06-16T01:16:03.959Z,0
2016-06-16T01:17:03.962Z,0
2016-06-16T01:18:04.090Z,0
2016-06-16T01:19:04.077Z,0
2016-06-16T01:20:04.065Z,0
2016-06-16T01:21:04.052Z,0
2016-06-16T01:22:04.023Z,0
2016-06-16T01:23:04.011Z,0
2016-06-16T01:24:04.014Z,0
2016-06-16T01:25:03.987Z,0
2016-06-16T01:26:03.849Z,0
2016-06-16T01:27:03.977Z,0
2016-06-16T01:28:03.807Z,0
2016-06-16T01:29:03.936Z,0
2016-06-16T01:30:03.923Z,0
2016-06-16T01:31:03.911Z,0
2016-06-16T01:32:03.898Z,0
2016-06-16T01:33:03.870Z,0
2016-06-16T01:34:03.842Z,0
2016-06-16T01:35:03.845Z,0
2016-06-16T01:36:03.848Z,0
2016-06-16T01:37:03.835Z,0
2016-06-16T01:38:03.792Z,0
2016-06-16T01:39:03.794Z,0
2016-06-16T01:40:03.797Z,0
2016-06-16T01:41:03.489Z,0
2016-06-16T01:42:03.757Z,0
2016-06-16T01:43:03.604Z,0
2016-06-16T01:44:03.732Z,0
2016-06-16T01:45:03.719Z,0
2016-06-16T01:46:03.769Z,0
2016-06-16T01:47:03.679Z,0
2016-06-16T01:48:03.666Z,0
2016-06-16T01:49:03.670Z,0
2016-06-16T01:50:03.703Z,0
2016-06-16T01:51:03.612Z,0
2016-06-16T01:52:03.616Z,0
2016-06-16T01:53:03.604Z,0
2016-06-16T01:54:03.637Z,0
2016-06-16T01:55:03.562Z,0
2016-06-16T01:56:03.941Z,0
2016-06-16T01:57:03.538Z,0
2016-06-16T01:58:03.603Z,0
2016-06-16T01:59:03.512Z,0
2016-06-16T02:00:03.562Z,0
2016-06-16T02:01:03.456Z,0
2016-06-16T02:02:03.476Z,0
2016-06-16T02:03:03.446Z,0
2016-06-16T02:04:03.357Z,0
2016-06-16T02:05:03.421Z,0
2016-06-16T02:06:03.409Z,0
2016-06-16T02:07:03.396Z,0
2016-06-16T02:08:03.431Z,0
2016-06-16T02:09:03.356Z,0
2016-06-16T02:10:03.359Z,0
2016-06-16T02:11:03.362Z,0
2016-06-16T02:12:03.381Z,0
2016-06-16T02:13:03.321Z,0
2016-06-16T02:14:03.355Z,0
2016-06-16T02:15:03.280Z,0
2016-06-16T02:16:03.269Z,0
2016-06-16T02:17:03.255Z,0
2016-06-16T02:18:03.242Z,0
2016-06-16T02:19:03.215Z,0
2016-06-16T02:20:03.202Z,0
2016-06-16T02:21:03.204Z,0
2016-06-16T02:22:03.177Z,0
2016-06-16T02:23:03.165Z,0
2016-06-16T02:24:03.261Z,0
2016-06-16T02:25:02.983Z,0
2016-06-16T02:26:03.549Z,0
2016-06-16T02:27:03.130Z,0
2016-06-16T02:28:03.087Z,0
2016-06-16T02:29:03.058Z,0
2016-06-16T02:30:03.076Z,0
2016-06-16T02:31:03.048Z,0
2016-06-16T02:32:03.130Z,0
2016-06-16T02:33:03.023Z,0
2016-06-16T02:34:03.027Z,4
2016-06-16T02:35:02.983Z,4
2016-06-16T02:36:03.001Z,4
2016-06-16T02:37:02.973Z,0
2016-06-16T02:38:02.945Z,0
2016-06-16T02:39:02.948Z,4
2016-06-16T02:40:02.935Z,4
2016-06-16T02:41:03.032Z,4
2016-06-16T02:42:02.926Z,4
2016-06-16T02:43:02.866Z,4
2016-06-16T02:44:02.886Z,8
2016-06-16T02:45:02.873Z,4
2016-06-16T02:46:02.828Z,8
2016-06-16T02:47:02.816Z,8
2016-06-16T02:48:02.788Z,12
2016-06-16T02:49:02.791Z,12
2016-06-16T02:50:02.778Z,12
2016-06-16T02:51:02.610Z,16
2016-06-16T02:52:02.754Z,16
2016-06-16T02:53:02.600Z,16
2016-06-16T02:54:02.728Z,16
2016-06-16T02:55:02.701Z,20
2016-06-16T02:56:03.250Z,20
2016-06-16T02:57:02.659Z,24
2016-06-16T02:58:02.663Z,24
2016-06-16T02:59:02.635Z,28
2016-06-16T03:00:02.638Z,32
2016-06-16T03:01:02.610Z,36
2016-06-16T03:02:02.613Z,36
2016-06-16T03:03:02.569Z,40
2016-06-16T03:04:02.413Z,44
2016-06-16T03:05:02.400Z,52
2016-06-16T03:06:02.544Z,56
2016-06-16T03:07:02.515Z,60
2016-06-16T03:08:02.504Z,60
2016-06-16T03:09:02.506Z,60
2016-06-16T03:10:02.477Z,60
2016-06-16T03:11:02.465Z,60
2016-06-16T03:12:02.878Z,68
2016-06-16T03:13:02.456Z,72
2016-06-16T03:14:02.411Z,76
2016-06-16T03:15:02.399Z,80
2016-06-16T03:16:02.371Z,84
2016-06-16T03:17:02.374Z,84
2016-06-16T03:18:02.346Z,80
2016-06-16T03:19:02.349Z,84
2016-06-16T03:20:02.352Z,80
2016-06-16T03:21:02.340Z,88
2016-06-16T03:22:02.296Z,88
2016-06-16T03:23:02.283Z,92
2016-06-16T03:24:02.270Z,96
2016-06-16T03:25:02.243Z,100
2016-06-16T03:26:02.245Z,108
2016-06-16T03:27:02.154Z,108
2016-06-16T03:28:02.221Z,112
2016-06-16T03:29:02.193Z,116
2016-06-16T03:30:02.179Z,112
2016-06-16T03:31:02.167Z,116
2016-06-16T03:32:02.155Z,124
2016-06-16T03:33:02.142Z,128
2016-06-16T03:34:02.145Z,132
2016-06-16T03:35:02.117Z,140
2016-06-16T03:36:02.104Z,140
2016-06-16T03:37:02.093Z,152
2016-06-16T03:38:02.079Z,160
2016-06-16T03:39:02.145Z,160
2016-06-16T03:40:02.023Z,180
2016-06-16T03:41:02.010Z,200
2016-06-16T03:42:02.389Z,196
2016-06-16T03:43:01.875Z,208
2016-06-16T03:44:01.956Z,216
2016-06-16T03:45:02.007Z,216
2016-06-16T03:46:01.931Z,224
2016-06-16T03:47:01.904Z,236
2016-06-16T03:48:01.907Z,256
2016-06-16T03:49:01.926Z,248
2016-06-16T03:50:01.882Z,276
2016-06-16T03:51:01.886Z,272
2016-06-16T03:52:01.841Z,300
2016-06-16T03:53:01.844Z,316
2016-06-16T03:54:01.831Z,304
2016-06-16T03:55:01.866Z,304
2016-06-16T03:56:01.790Z,320
2016-06-16T03:57:01.622Z,336
2016-06-16T03:58:01.766Z,364
2016-06-16T03:59:01.800Z,392
2016-06-16T04:00:01.756Z,404
2016-06-16T04:01:01.728Z,376
2016-06-16T04:02:01.700Z,352
2016-06-16T04:03:01.531Z,360
2016-06-16T04:04:01.691Z,372
2016-06-16T04:05:01.693Z,424
2016-06-16T04:06:01.665Z,444
2016-06-16T04:07:01.637Z,476
2016-06-16T04:08:01.610Z,448
2016-06-16T04:09:01.596Z,452
2016-06-16T04:10:01.583Z,488
2016-06-16T04:11:01.665Z,484
2016-06-16T04:12:01.981Z,576
2016-06-16T04:13:01.546Z,552
2016-06-16T04:14:01.548Z,576
2016-06-16T04:15:01.537Z,664
2016-06-16T04:16:01.509Z,668
2016-06-16T04:17:01.499Z,732
2016-06-16T04:18:01.370Z,736
2016-06-16T04:19:01.553Z,752
2016-06-16T04:20:01.596Z,924
2016-06-16T04:21:01.608Z,980
2016-06-16T04:22:01.609Z,864
2016-06-16T04:23:01.626Z,940
2016-06-16T04:24:01.455Z,1012
2016-06-16T04:25:01.629Z,1084
2016-06-16T04:26:01.615Z,1072
2016-06-16T04:27:02.034Z,1008
2016-06-16T04:28:01.589Z,1028
2016-06-16T04:29:01.582Z,1052
2016-06-16T04:30:01.590Z,1032
2016-06-16T04:31:01.582Z,1056
2016-06-16T04:32:01.558Z,1104
2016-06-16T04:33:01.719Z,1136
2016-06-16T04:34:01.724Z,1220
2016-06-16T04:35:01.526Z,1448
2016-06-16T04:36:01.499Z,1476
2016-06-16T04:37:01.519Z,1540
2016-06-16T04:38:01.304Z,1896
2016-06-16T04:39:01.527Z,1960
2016-06-16T04:40:01.453Z,1864
2016-06-16T04:41:01.488Z,1936
2016-06-16T04:42:02.429Z,2012
2016-06-16T04:43:01.417Z,1976
2016-06-16T04:44:01.405Z,1960
2016-06-16T04:45:01.393Z,2004
2016-06-16T04:46:01.365Z,1960
2016-06-16T04:47:01.383Z,2208
2016-06-16T04:48:01.339Z,2028
2016-06-16T04:49:01.328Z,2136
2016-06-16T04:50:01.330Z,2144
2016-06-16T04:51:01.303Z,2236
2016-06-16T04:52:01.290Z,2328
2016-06-16T04:53:01.277Z,2460
2016-06-16T04:54:01.249Z,2444
2016-06-16T04:55:01.252Z,2504
2016-06-16T04:56:01.208Z,2608
2016-06-16T04:57:01.227Z,2652
2016-06-16T04:58:01.215Z,2688
2016-06-16T04:59:01.186Z,2740
2016-06-16T05:00:01.173Z,2752
2016-06-16T05:01:01.161Z,2764
2016-06-16T05:02:01.148Z,2800
2016-06-16T05:03:01.135Z,2800
2016-06-16T05:04:01.124Z,2868
2016-06-16T05:05:01.080Z,2916
2016-06-16T05:06:01.066Z,2988
2016-06-16T05:07:01.070Z,3080
2016-06-16T05:08:01.058Z,3032
2016-06-16T05:09:01.061Z,3056
2016-06-16T05:10:00.876Z,2968
2016-06-16T05:11:00.832Z,2932
2016-06-16T05:12:01.429Z,2708
2016-06-16T05:13:00.980Z,2520
2016-06-16T05:14:00.983Z,2388
2016-06-16T05:15:00.939Z,2204
2016-06-16T05:16:00.942Z,2216
2016-06-16T05:17:00.928Z,2324
2016-06-16T05:18:00.901Z,2552
2016-06-16T05:19:00.920Z,2860
2016-06-16T05:20:00.923Z,3032
2016-06-16T05:21:00.863Z,3128
2016-06-16T05:22:00.835Z,3168
2016-06-16T05:23:00.854Z,3212
2016-06-16T05:24:00.825Z,3260
2016-06-16T05:25:00.813Z,3292
2016-06-16T05:26:00.800Z,3320
2016-06-16T05:27:01.632Z,3308
2016-06-16T05:28:00.760Z,3308
2016-06-16T05:29:00.763Z,3312
2016-06-16T05:30:00.750Z,3268
2016-06-16T05:31:00.737Z,3236
2016-06-16T05:32:00.725Z,3160
2016-06-16T05:33:00.557Z,3124
2016-06-16T05:34:00.685Z,3316
2016-06-16T05:35:00.672Z,3392
2016-06-16T05:36:00.675Z,3408
2016-06-16T05:37:00.647Z,3476
2016-06-16T05:38:00.634Z,3548
2016-06-16T05:39:00.621Z,3616
2016-06-16T05:40:00.609Z,3660
2016-06-16T05:41:00.581Z,3696
2016-06-16T05:42:00.693Z,3716
2016-06-16T05:43:00.572Z,3756
2016-06-16T05:44:00.575Z,3740
2016-06-16T05:45:00.531Z,3664
2016-06-16T05:46:00.503Z,3644
2016-06-16T05:47:00.506Z,3544
2016-06-16T05:48:00.367Z,3696
2016-06-16T05:49:00.481Z,3592
2016-06-16T05:50:00.515Z,3588
2016-06-16T05:51:00.440Z,3580
2016-06-16T05:52:00.474Z,3792
2016-06-16T05:53:00.430Z,3928
2016-06-16T05:54:00.449Z,3984
2016-06-16T05:55:00.390Z,4004
2016-06-16T05:56:00.393Z,4008
2016-06-16T05:57:01.099Z,4068
2016-06-16T05:58:00.352Z,4160
2016-06-16T05:59:00.355Z,4268
2016-06-16T06:00:00.342Z,4316
2016-06-16T06:01:00.313Z,4432
2016-06-16T06:02:00.302Z,4448
2016-06-16T06:03:00.289Z,4312
2016-06-16T06:04:00.339Z,4464
2016-06-16T06:05:00.264Z,4440
2016-06-16T06:06:00.251Z,4636
2016-06-16T06:07:00.223Z,4500
2016-06-16T06:08:00.227Z,4316
2016-06-16T06:09:00.058Z,4232
2016-06-16T06:10:00.171Z,4124
2016-06-16T06:11:00.189Z,3860
2016-06-16T06:12:00.177Z,3888
2016-06-16T06:13:00.147Z,4104
2016-06-16T06:14:00.150Z,4144
2016-06-16T06:15:00.123Z,4184
2016-06-16T06:16:00.126Z,4216
2016-06-16T06:17:00.113Z,4196
2016-06-16T06:18:00.101Z,4336
2016-06-16T06:19:00.073Z,4580
2016-06-16T06:20:00.061Z,4652
2016-06-16T06:21:00.032Z,4724
2016-06-16T06:22:00.051Z,4728
2016-06-16T06:23:00.038Z,4588
2016-06-16T06:24:00.010Z,4600
2016-06-16T06:24:59.981Z,4720
2016-06-16T06:25:59.985Z,4804
2016-06-16T06:27:00.394Z,4648
2016-06-16T06:27:59.960Z,4560
2016-06-16T06:28:59.775Z,4780
2016-06-16T06:29:59.919Z,4800
2016-06-16T06:30:59.922Z,4712
2016-06-16T06:31:59.909Z,4724
2016-06-16T06:32:59.897Z,4820
2016-06-16T06:33:59.884Z,4864
2016-06-16T06:34:59.888Z,4948
2016-06-16T06:35:59.860Z,5032
2016-06-16T06:36:59.847Z,5108
2016-06-16T06:37:59.849Z,5200
2016-06-16T06:38:59.837Z,5312
2016-06-16T06:39:59.809Z,5412
2016-06-16T06:40:59.781Z,5452
2016-06-16T06:41:59.878Z,5564
2016-06-16T06:42:59.772Z,5652
2016-06-16T06:43:59.759Z,5664
2016-06-16T06:44:59.590Z,5716
2016-06-16T06:45:59.749Z,5888
2016-06-16T06:46:59.752Z,5884
2016-06-16T06:47:59.708Z,5748
2016-06-16T06:48:59.525Z,5984
2016-06-16T06:49:59.575Z,6064
2016-06-16T06:50:59.687Z,6108
2016-06-16T06:51:59.658Z,6140
2016-06-16T06:52:59.646Z,6208
2016-06-16T06:53:59.664Z,6264
2016-06-16T06:54:59.621Z,6244
2016-06-16T06:55:59.608Z,6288
2016-06-16T06:56:59.283Z,6320
2016-06-16T06:57:59.427Z,6288
2016-06-16T06:58:59.586Z,6260
2016-06-16T06:59:59.558Z,6360
2016-06-16T07:00:59.561Z,6284
2016-06-16T07:01:59.548Z,6364
2016-06-16T07:02:59.615Z,6348
2016-06-16T07:03:59.212Z,6380
2016-06-16T07:04:59.542Z,6416
2016-06-16T07:05:59.342Z,6552
2016-06-16T07:06:59.502Z,6708
2016-06-16T07:07:59.442Z,6800
2016-06-16T07:08:59.445Z,6684
2016-06-16T07:09:59.292Z,6596
2016-06-16T07:10:59.436Z,7156
2016-06-16T07:11:59.361Z,6576
2016-06-16T07:12:59.426Z,6304
2016-06-16T07:13:59.413Z,6724
2016-06-16T07:14:59.385Z,6812
2016-06-16T07:15:59.374Z,6916
2016-06-16T07:16:59.361Z,6800
2016-06-16T07:17:59.348Z,6604
2016-06-16T07:18:59.319Z,4820
2016-06-16T07:19:59.151Z,6876
2016-06-16T07:20:59.310Z,7308
2016-06-16T07:21:59.157Z,7392
2016-06-16T07:22:59.285Z,7552
2016-06-16T07:23:59.273Z,7824
2016-06-16T07:24:59.261Z,7428
2016-06-16T07:25:59.107Z,6736
2016-06-16T07:26:59.375Z,7800
2016-06-16T07:27:59.066Z,8140
2016-06-16T07:28:59.225Z,8460
2016-06-16T07:29:59.213Z,8276
2016-06-16T07:30:59.059Z,8416
2016-06-16T07:31:59.187Z,7428
2016-06-16T07:32:59.222Z,6988
2016-06-16T07:33:58.976Z,7472
2016-06-16T07:48:36.755Z,8616
2016-06-16T07:48:44.036Z,9324
2016-06-16T07:48:56.599Z,9432
2016-06-16T07:49:56.586Z,9584
2016-06-16T07:50:56.605Z,9984
2016-06-16T07:51:56.639Z,9756
2016-06-16T07:52:56.564Z,9648
2016-06-16T07:53:56.520Z,9528
2016-06-16T07:54:56.212Z,9952
2016-06-16T07:55:56.387Z,9716
2016-06-16T07:56:56.374Z,10116
2016-06-16T07:57:56.501Z,10552
2016-06-16T07:58:56.582Z,10016
2016-06-16T07:59:56.492Z,10152
2016-06-16T08:00:56.573Z,11148
2016-06-16T08:01:56.295Z,12028
2016-06-16T08:02:56.329Z,11380
2016-06-16T08:03:56.442Z,10688
2016-06-16T08:04:56.445Z,9836
2016-06-16T08:05:56.417Z,9992
2016-06-16T08:06:56.436Z,9080
2016-06-16T08:07:56.392Z,8588
2016-06-16T08:08:56.395Z,9576
2016-06-16T08:09:56.226Z,8756
2016-06-16T08:10:56.589Z,9040
2016-06-16T08:11:56.216Z,8828
2016-06-16T08:12:56.392Z,8700
2016-06-16T08:13:56.348Z,9220
2016-06-16T08:14:56.350Z,8892
2016-06-16T08:15:56.323Z,9072
2016-06-16T08:16:56.310Z,10320
2016-06-16T08:17:56.313Z,10808
2016-06-16T08:18:56.286Z,11336
2016-06-16T08:19:56.303Z,11312
2016-06-16T08:20:56.150Z,11324
2016-06-16T08:21:56.279Z,12304
2016-06-16T08:22:56.265Z,11552
2016-06-16T08:23:56.254Z,10872
2016-06-16T08:24:56.256Z,10128
2016-06-16T08:25:56.259Z,10372
2016-06-16T08:26:56.137Z,12048
2016-06-16T08:27:56.219Z,12368
2016-06-16T08:28:56.191Z,12412
2016-06-16T08:29:56.194Z,11484
2016-06-16T08:30:56.197Z,9648
2016-06-16T08:31:56.028Z,8772
2016-06-16T08:32:56.171Z,8404
2016-06-16T08:33:56.003Z,10596
2016-06-16T08:34:56.147Z,10248
2016-06-16T08:35:56.150Z,11588
2016-06-16T08:36:56.138Z,12612
2016-06-16T08:37:55.968Z,13612
2016-06-16T08:38:55.956Z,12984
2016-06-16T08:39:56.115Z,10800
2016-06-16T08:40:55.946Z,9284
2016-06-16T08:41:56.106Z,7524
2016-06-16T08:42:56.094Z,6520
2016-06-16T08:43:56.081Z,6816
2016-06-16T08:44:55.913Z,6764
2016-06-16T08:45:56.087Z,6840
2016-06-16T08:46:56.044Z,6400
2016-06-16T08:47:55.905Z,6576
2016-06-16T08:48:19.643Z,9180
2016-06-16T08:48:32.268Z,9312
2016-06-16T08:49:32.256Z,9356
2016-06-16T08:50:32.244Z,10300
2016-06-16T08:51:32.230Z,11028
2016-06-16T08:52:32.046Z,7756
2016-06-16T08:53:32.222Z,8468
2016-06-16T08:54:32.209Z,7784
2016-06-16T08:55:32.040Z,8224
2016-06-16T08:56:32.011Z,8924
2016-06-16T08:57:32.156Z,11084
2016-06-16T08:58:32.142Z,13148
2016-06-16T08:59:31.990Z,13948
2016-06-16T09:00:32.149Z,13992
2016-06-16T09:01:31.980Z,13716
2016-06-16T09:02:31.952Z,13680
2016-06-16T09:03:32.017Z,13628
2016-06-16T09:04:31.942Z,13860
2016-06-16T09:05:31.978Z,13204
2016-06-16T09:06:32.089Z,13944
2016-06-16T09:07:32.076Z,14188
2016-06-16T09:08:32.064Z,15360
2016-06-16T09:09:32.068Z,14148
2016-06-16T09:10:32.071Z,12120
2016-06-16T09:11:32.074Z,11320
2016-06-16T09:12:31.873Z,11932
2016-06-16T09:13:32.017Z,14864
2016-06-16T09:14:32.020Z,15568
2016-06-16T09:15:32.054Z,17824
2016-06-16T09:16:32.026Z,16096
2016-06-16T09:17:32.045Z,17152
2016-06-16T09:18:32.001Z,13872
2016-06-16T09:19:31.989Z,17184
2016-06-16T09:20:31.991Z,10488
2016-06-16T09:21:31.980Z,9964
2016-06-16T09:22:31.966Z,9924
2016-06-16T09:23:31.953Z,9628
2016-06-16T09:24:31.942Z,13296
2016-06-16T09:25:32.085Z,21024
2016-06-16T09:26:31.932Z,10652
2016-06-16T09:27:31.935Z,8976
2016-06-16T09:28:31.938Z,10216
2016-06-16T09:29:31.910Z,13260
2016-06-16T09:30:31.600Z,25760
2016-06-16T09:31:31.916Z,27200
2016-06-16T09:32:31.794Z,39232
2016-06-16T09:33:31.892Z,9448
2016-06-16T09:34:31.941Z,13984
2016-06-16T09:35:31.913Z,10224
2016-06-16T09:36:31.885Z,10820
2016-06-16T09:37:31.888Z,66208
2016-06-16T09:38:31.921Z,63840
2016-06-16T09:39:31.816Z,59552
2016-06-16T09:40:31.538Z,57024
2016-06-16T09:41:31.838Z,57152
2016-06-16T09:42:31.825Z,61440
2016-06-16T09:43:31.812Z,61920
2016-06-16T09:44:31.831Z,61088
2016-06-16T09:45:31.943Z,63232
2016-06-16T09:46:31.822Z,39104
2016-06-16T09:47:31.668Z,17440
2016-06-16T09:48:31.812Z,39840
2016-06-16T09:49:31.800Z,27616
2016-06-16T09:50:31.786Z,56704
2016-06-16T09:51:31.619Z,58080
2016-06-16T09:52:31.637Z,54144
2016-06-16T09:53:31.640Z,45344
2016-06-16T09:54:31.642Z,42592
2016-06-16T09:55:31.615Z,40672
2016-06-16T09:56:31.774Z,35296
2016-06-16T09:57:31.793Z,30528
2016-06-16T09:58:31.593Z,34976
2016-06-16T09:59:31.768Z,28320
2016-06-16T10:00:31.771Z,41632
2016-06-16T10:01:31.586Z,35456
2016-06-16T10:02:31.621Z,8056
2016-06-16T10:03:31.999Z,8372
2016-06-16T10:04:31.752Z,10572
2016-06-16T10:05:31.880Z,31968
2016-06-16T10:06:32.024Z,13384
2016-06-16T10:07:32.182Z,37792
2016-06-16T10:08:31.764Z,34144
2016-06-16T10:09:32.861Z,30208
2016-06-16T10:10:31.708Z,32192
2016-06-16T10:11:31.555Z,28128
2016-06-16T10:12:31.698Z,27200
2016-06-16T10:13:31.686Z,24832
2016-06-16T10:14:31.705Z,19616
2016-06-16T10:15:31.693Z,19840
2016-06-16T10:16:31.679Z,17376
2016-06-16T10:17:31.589Z,20224
2016-06-16T10:18:31.654Z,19584
2016-06-16T10:19:31.673Z,17952
2016-06-16T10:20:31.645Z,26752
2016-06-16T10:21:31.648Z,27808
2016-06-16T10:22:31.667Z,24224
2016-06-16T10:23:31.654Z,27616
2016-06-16T10:24:31.470Z,23200
2016-06-16T10:25:31.629Z,10388
2016-06-16T10:26:31.632Z,13284
2016-06-16T10:27:31.636Z,8376
2016-06-16T10:28:31.607Z,7516
2016-06-16T10:29:31.611Z,9540
2016-06-16T10:30:31.442Z,6796
2016-06-16T10:31:31.585Z,7980
2016-06-16T10:32:31.573Z,9424
2016-06-16T10:33:31.560Z,7720
2016-06-16T10:34:31.546Z,7628
2016-06-16T10:35:31.269Z,7248
2016-06-16T10:36:31.538Z,7992
2016-06-16T10:37:31.572Z,7936
2016-06-16T10:38:31.513Z,7380
2016-06-16T10:39:31.375Z,8036
2016-06-16T10:40:31.520Z,9044
2016-06-16T10:41:31.381Z,10040
2016-06-16T10:42:31.525Z,9240
2016-06-16T10:43:31.340Z,9448
2016-06-16T10:44:31.516Z,9380
2016-06-16T10:45:31.363Z,9432
2016-06-16T10:46:31.506Z,11772
2016-06-16T10:47:31.478Z,12984
2016-06-16T10:48:31.309Z,13416
2016-06-16T10:49:31.453Z,13340
2016-06-16T10:50:31.393Z,13148
2016-06-16T10:51:31.459Z,13260
2016-06-16T10:52:31.431Z,12504
2016-06-16T10:53:31.465Z,12216
2016-06-16T10:54:31.484Z,10944
2016-06-16T10:55:31.127Z,10996
2016-06-16T10:56:31.412Z,10452
2016-06-16T10:57:31.400Z,7020
2016-06-16T10:58:31.496Z,6992
2016-06-16T10:59:31.405Z,6628
2016-06-16T11:00:31.393Z,6776
2016-06-16T11:01:31.396Z,6424
2016-06-16T11:02:31.696Z,6256
2016-06-16T11:03:31.387Z,6024
2016-06-16T11:04:31.343Z,5756
2016-06-16T11:07:52.696Z,5144
2016-06-16T11:09:37.061Z,5212
2016-06-16T11:09:53.015Z,5268
2016-06-16T11:10:52.783Z,5264
2016-06-16T11:11:53.021Z,5864
2016-06-16T11:13:37.043Z,5212
2016-06-16T11:13:53.058Z,5216
2016-06-16T11:14:52.999Z,5332
2016-06-16T11:15:52.799Z,5520
2016-06-16T11:16:52.786Z,5568
2016-06-16T11:17:52.930Z,5544
2016-06-16T11:18:52.776Z,6024
2016-06-16T11:19:52.983Z,7052
2016-06-16T11:20:52.924Z,6424
2016-06-16T11:21:52.911Z,6896
2016-06-16T11:22:52.899Z,8460
2016-06-16T11:23:52.917Z,7160
2016-06-16T11:24:52.561Z,7464
2016-06-16T11:25:52.877Z,9792
2016-06-16T11:26:52.863Z,9076
2016-06-16T11:27:52.867Z,10000
2016-06-16T11:28:52.870Z,8684
2016-06-16T11:29:52.873Z,7352
2016-06-16T11:30:52.704Z,7080
2016-06-16T11:31:52.691Z,7504
2016-06-16T11:32:52.835Z,8056
2016-06-16T11:33:52.730Z,8312
2016-06-16T11:34:52.794Z,9284
2016-06-16T11:35:52.829Z,10164
2016-06-16T11:36:52.817Z,10508
2016-06-16T11:37:52.647Z,11384
2016-06-16T11:38:52.634Z,11212
2016-06-16T11:39:52.763Z,11064
2016-06-16T11:40:52.766Z,11100
2016-06-16T11:41:52.754Z,11040
2016-06-16T11:42:52.757Z,10500
2016-06-16T11:43:52.760Z,9872
2016-06-16T11:44:52.825Z,11260
2016-06-16T11:45:52.719Z,11396
2016-06-16T11:46:52.598Z,11592
2016-06-16T11:47:52.709Z,11204
2016-06-16T11:48:52.587Z,11152
2016-06-16T11:49:52.699Z,11184
2016-06-16T11:50:52.702Z,10572
2016-06-16T11:51:52.706Z,8352
2016-06-16T11:52:52.694Z,8168
2016-06-16T11:53:52.712Z,8040
2016-06-16T11:54:52.669Z,8296
2016-06-16T11:55:52.515Z,11888
2016-06-16T11:56:52.346Z,11304
2016-06-16T11:57:52.646Z,8792
2016-06-16T11:58:52.682Z,9292
2016-06-16T11:59:52.481Z,11564
2016-06-16T12:00:52.640Z,11040
2016-06-16T12:01:52.612Z,12788
2016-06-16T12:02:52.615Z,12848
2016-06-16T12:03:52.617Z,8972
2016-06-16T12:04:52.621Z,8324
2016-06-16T12:05:52.453Z,7844
2016-06-16T12:06:52.612Z,6972
2016-06-16T12:07:52.115Z,6632
2016-06-16T12:08:52.618Z,6260
2016-06-16T12:09:52.418Z,6128
2016-06-16T12:10:52.593Z,6480
2016-06-16T12:11:52.564Z,6680
2016-06-16T12:12:52.552Z,6856
2016-06-16T12:13:52.555Z,6880
2016-06-16T12:14:52.527Z,6928
2016-06-16T12:15:52.390Z,7356
2016-06-16T12:16:52.548Z,7848
2016-06-16T12:17:52.568Z,8028
2016-06-16T12:18:52.524Z,8000
2016-06-16T12:19:52.496Z,8028
2016-06-16T12:20:52.420Z,8132
2016-06-16T12:21:52.345Z,8096
2016-06-16T12:22:52.348Z,8264
2016-06-16T12:23:52.320Z,9344
2016-06-16T12:24:52.308Z,9320
2016-06-16T12:25:52.342Z,9472
2016-06-16T12:26:52.454Z,9588
2016-06-16T12:27:52.473Z,9704
2016-06-16T12:28:52.445Z,9408
2016-06-16T12:29:52.464Z,9336
2016-06-16T12:30:52.280Z,9412
2016-06-16T12:31:52.283Z,9052
2016-06-16T12:32:52.286Z,9548
2016-06-16T12:33:52.445Z,9364
2016-06-16T12:34:52.417Z,9252
2016-06-16T12:35:52.420Z,9384
2016-06-16T12:36:52.407Z,7468
2016-06-16T12:37:52.395Z,7408
2016-06-16T12:38:52.383Z,7316
2016-06-16T12:39:52.088Z,7228
2016-06-16T12:40:52.373Z,7112
2016-06-16T12:41:52.375Z,7532
2016-06-16T12:42:52.362Z,7216
2016-06-16T12:43:52.445Z,6984
2016-06-16T12:44:52.337Z,7160
2016-06-16T12:45:52.216Z,7180
2016-06-16T12:46:52.172Z,7064
2016-06-16T12:47:52.316Z,7084
2016-06-16T12:48:52.319Z,6976
2016-06-16T12:49:52.338Z,6864
2016-06-16T12:50:52.325Z,6712
2016-06-16T12:51:52.298Z,6608
2016-06-16T12:52:52.316Z,6556
2016-06-16T12:58:59.037Z,6548
2016-06-16T12:59:59.040Z,6632
2016-06-16T13:00:59.043Z,6608
2016-06-16T13:01:58.672Z,6476
2016-06-16T13:02:59.238Z,6448
2016-06-16T13:03:59.006Z,6456
2016-06-16T13:04:59.181Z,6316
2016-06-16T13:05:59.183Z,6152
2016-06-16T13:06:59.281Z,6064
2016-06-16T13:07:59.253Z,6068
2016-06-16T13:08:59.271Z,5976
2016-06-16T13:09:59.134Z,5848
2016-06-16T13:10:58.794Z,5744
2016-06-16T13:11:59.141Z,5756
2016-06-16T13:12:59.566Z,5532
2016-06-16T13:13:58.787Z,5420
2016-06-16T13:14:59.119Z,5616
2016-06-16T13:15:59.075Z,6116
2016-06-16T13:16:59.328Z,7476
2016-06-16T13:17:59.065Z,6264
2016-06-16T13:18:59.224Z,6308
2016-06-16T13:19:59.290Z,6224
2016-06-16T13:20:59.308Z,6168
2016-06-16T13:21:59.171Z,6212
2016-06-16T13:22:59.127Z,6268
2016-06-16T13:23:58.584Z,6616
2016-06-16T13:24:58.836Z,7164
2016-06-16T13:25:59.824Z,7544
2016-06-16T13:26:59.233Z,7564
2016-06-16T13:27:58.862Z,7196
2016-06-16T13:28:59.177Z,7016
2016-06-16T13:29:58.993Z,6916
2016-06-16T13:30:58.823Z,6900
2016-06-16T13:31:58.999Z,6948
2016-06-16T13:32:59.424Z,8760
2016-06-16T13:33:58.942Z,9076
2016-06-16T13:34:58.976Z,9328
2016-06-16T13:35:58.839Z,9228
2016-06-16T13:36:58.998Z,8260
2016-06-16T13:37:58.923Z,7404
2016-06-16T13:38:58.863Z,8112
2016-06-16T13:39:58.961Z,7280
2016-06-16T13:40:59.558Z,7184
2016-06-16T13:41:58.983Z,7060
2016-06-16T13:42:58.923Z,7824
2016-06-16T13:43:58.848Z,7996
2016-06-16T13:44:58.867Z,8328
2016-06-16T13:45:58.542Z,8320
2016-06-16T13:46:58.514Z,8136
2016-06-16T13:47:58.704Z,8168
2016-06-16T13:48:58.801Z,7960
2016-06-16T13:49:58.897Z,7708
2016-06-16T13:50:58.775Z,6504
2016-06-16T13:51:58.795Z,5884